LPPSLPPR

Guest
Details From LPPS - Porto Santo
To LPPR - Porto
Flight Number -
Tags Generated
Created
Modified
Stats Distance 613 nm / 1,136 km
Max Altitude 0 ft / 0 m
Waypoints 3
Social Downloads 0
Likes 0
Share VATSIM

Download

Looking for another format? Having issues loading an existing format? Contact us
Advertisement - Login to hide

Notes

Generated

Route

LPPS PRT LPPR

ID Type Via Altitude Latitude Longitude Leg Dist Tot Dist Heading (true) Name
O LPPS APT - 0 ft / 0 m 33.08696˚ -16.35048˚ - 0 nm - -
PRT VOR - 0 ft / 0 m 41.27300˚ -8.68783˚ 612 nm 612 nm 34° / 39° PORTO VOR-DME
O LPPR APT - 0 ft / 0 m 41.26333˚ -8.68524˚ 0 nm 613 nm 169° / 169° -

Altitude Profile

Advertisement - Login to hide

Weather


0- 5 10 15 20 25 30 35+ Temperature / ° C

Clouds and Precipitation
Forecast for 2017-12-13 06:00 UTC. Updated 25 minutes ago

Ground ~20,000 ft ~40,000 ft Winds

LPPS

Details ICAO LPPS (PXO)
Name Porto Santo
Region Portugal
Timezone Atlantic/Madeira (UTC+0.0)
Stats Elevation 340 ft / 104 m (AMSL)
Location 33.073413° -16.349946°
Runways 1
Magnetic Variation 4.819° W

METAR

LPPS 130530Z 05012KT 010V080 9999 SCT014 FEW016TCU 17/10 Q1027

Decode

TAF

TAF LPPS 122300Z 1300/1406 04015KT 9999 SCT015 TEMPO 1300/1320 03020G30KT BKN012 FEW016TCU

Decode

Departure Runways

ID Width Length Bearing (true) Bearing (mag) Surface Threshold Offset Overrun Length
18 148 ft / 45 m 9,890 ft / 3,014 m 178.11° 182.93° Asphalt 0 ft / 0 m 0 ft / 0 m
36 148 ft / 45 m 9,890 ft / 3,014 m 358.12° 2.94° Asphalt 0 ft / 0 m 499 ft / 152 m

LPPR

Details ICAO LPPR (OPO)
Name Porto
Region Portugal
Timezone Europe/Lisbon (UTC+0.0)
Stats Elevation 228 ft / 69 m (AMSL)
Location 41.247932° -8.681221°
Runways 1
Magnetic Variation 2.340° W

METAR

LPPR 130530Z 17012KT 9999 BKN015 11/08 Q1025

Decode

TAF

TAF LPPR 122300Z 1300/1324 18010KT 8000 SCT005 BKN020 PROB40 TEMPO 1303/1312 5000 DZ BR SCT004 BKN008 BECMG 1318/1321 3000 DZ BR SCT002 BKN004

Decode

Destination Runways

ID Width Length Bearing (true) Bearing (mag) Surface Threshold Offset Overrun Length
17 148 ft / 45 m 11,451 ft / 3,490 m 168.88° 171.22° Asphalt 984 ft / 300 m 220 ft / 67 m
35 148 ft / 45 m 11,451 ft / 3,490 m 348.89° 351.23° Asphalt 492 ft / 150 m 370 ft / 113 m

Approach Navaids

Runway Type Ident Frequency Range Bearing (true) Bearing (mag) Slope Elevation
17 Localiser PR 109.90 MHz 18 nm / 33 km 168.87° 171.21° - 228 ft / 69 m (AMSL)
17 Glidescope PR 109.90 MHz 10 nm / 19 km 168.88° 171.22° 2.72° 228 ft / 69 m (AMSL)
17 DME PR 109.90 MHz 18 nm / 33 km - - - 228 ft / 69 m (AMSL)

Popular Alternatives